sensor_id;sensor_type;location;lat;lon;timestamp;P1;durP1;ratioP1;P2;durP2;ratioP2
5559;SDS011;2803;47.916;8.074;2023-09-19T00:01:08;4.90;;;1.90;;
5559;SDS011;2803;47.916;8.074;2023-09-19T00:03:38;1.70;;;1.40;;
5559;SDS011;2803;47.916;8.074;2023-09-19T00:06:06;1.77;;;1.17;;
5559;SDS011;2803;47.916;8.074;2023-09-19T00:08:34;5.50;;;1.70;;
5559;SDS011;2803;47.916;8.074;2023-09-19T00:11:01;2.93;;;1.93;;
5559;SDS011;2803;47.916;8.074;2023-09-19T00:13:28;5.70;;;1.73;;
5559;SDS011;2803;47.916;8.074;2023-09-19T00:15:55;2.13;;;1.23;;
5559;SDS011;2803;47.916;8.074;2023-09-19T00:18:24;2.53;;;1.47;;
5559;SDS011;2803;47.916;8.074;2023-09-19T00:20:58;1.87;;;1.40;;
5559;SDS011;2803;47.916;8.074;2023-09-19T00:23:24;5.77;;;1.60;;
5559;SDS011;2803;47.916;8.074;2023-09-19T00:25:52;4.83;;;1.37;;
5559;SDS011;2803;47.916;8.074;2023-09-19T00:28:22;3.93;;;1.03;;
5559;SDS011;2803;47.916;8.074;2023-09-19T00:30:49;3.73;;;1.77;;
5559;SDS011;2803;47.916;8.074;2023-09-19T00:33:16;4.20;;;1.63;;
5559;SDS011;2803;47.916;8.074;2023-09-19T00:35:47;3.90;;;1.70;;
5559;SDS011;2803;47.916;8.074;2023-09-19T00:38:16;3.60;;;1.80;;
5559;SDS011;2803;47.916;8.074;2023-09-19T00:40:44;7.70;;;1.97;;
5559;SDS011;2803;47.916;8.074;2023-09-19T00:43:11;1.50;;;1.10;;
5559;SDS011;2803;47.916;8.074;2023-09-19T00:45:38;6.63;;;1.70;;
5559;SDS011;2803;47.916;8.074;2023-09-19T00:48:08;2.67;;;1.53;;
5559;SDS011;2803;47.916;8.074;2023-09-19T00:50:35;1.60;;;1.30;;
5559;SDS011;2803;47.916;8.074;2023-09-19T00:53:02;4.23;;;1.60;;
5559;SDS011;2803;47.916;8.074;2023-09-19T00:55:34;4.77;;;1.70;;
5559;SDS011;2803;47.916;8.074;2023-09-19T00:58:02;5.77;;;1.70;;
5559;SDS011;2803;47.916;8.074;2023-09-19T01:00:31;3.27;;;1.37;;
5559;SDS011;2803;47.916;8.074;2023-09-19T01:02:59;1.53;;;1.43;;
5559;SDS011;2803;47.916;8.074;2023-09-19T01:05:26;8.23;;;2.23;;
5559;SDS011;2803;47.916;8.074;2023-09-19T01:07:53;3.47;;;1.40;;
5559;SDS011;2803;47.916;8.074;2023-09-19T01:10:20;4.70;;;1.73;;
5559;SDS011;2803;47.916;8.074;2023-09-19T01:12:54;7.73;;;1.70;;
5559;SDS011;2803;47.916;8.074;2023-09-19T01:15:32;2.90;;;1.80;;
5559;SDS011;2803;47.916;8.074;2023-09-19T01:18:11;4.37;;;1.47;;
5559;SDS011;2803;47.916;8.074;2023-09-19T01:20:44;5.70;;;1.70;;
5559;SDS011;2803;47.916;8.074;2023-09-19T01:23:20;4.23;;;1.40;;
5559;SDS011;2803;47.916;8.074;2023-09-19T01:28:39;4.23;;;1.53;;
5559;SDS011;2803;47.916;8.074;2023-09-19T01:31:20;6.63;;;1.93;;
5559;SDS011;2803;47.916;8.074;2023-09-19T01:33:57;3.50;;;1.60;;
5559;SDS011;2803;47.916;8.074;2023-09-19T01:36:26;7.87;;;2.07;;
5559;SDS011;2803;47.916;8.074;2023-09-19T01:38:54;1.90;;;1.30;;
5559;SDS011;2803;47.916;8.074;2023-09-19T01:41:26;3.33;;;1.20;;
5559;SDS011;2803;47.916;8.074;2023-09-19T01:43:57;5.60;;;1.40;;
5559;SDS011;2803;47.916;8.074;2023-09-19T01:46:32;2.83;;;1.20;;
5559;SDS011;2803;47.916;8.074;2023-09-19T01:49:04;4.30;;;1.37;;
5559;SDS011;2803;47.916;8.074;2023-09-19T01:51:42;1.77;;;1.20;;
5559;SDS011;2803;47.916;8.074;2023-09-19T01:54:16;4.07;;;1.97;;
5559;SDS011;2803;47.916;8.074;2023-09-19T01:59:36;1.83;;;1.57;;
5559;SDS011;2803;47.916;8.074;2023-09-19T02:02:08;1.80;;;1.30;;
5559;SDS011;2803;47.916;8.074;2023-09-19T02:04:35;3.00;;;1.40;;
5559;SDS011;2803;47.916;8.074;2023-09-19T02:07:02;2.93;;;1.57;;
5559;SDS011;2803;47.916;8.074;2023-09-19T02:09:30;4.97;;;1.27;;
5559;SDS011;2803;47.916;8.074;2023-09-19T02:11:58;1.40;;;1.13;;
5559;SDS011;2803;47.916;8.074;2023-09-19T02:14:25;1.57;;;1.23;;
5559;SDS011;2803;47.916;8.074;2023-09-19T02:16:52;3.27;;;1.27;;
5559;SDS011;2803;47.916;8.074;2023-09-19T02:19:20;4.73;;;1.30;;
5559;SDS011;2803;47.916;8.074;2023-09-19T02:21:47;3.13;;;1.20;;
5559;SDS011;2803;47.916;8.074;2023-09-19T02:24:14;2.70;;;1.30;;
5559;SDS011;2803;47.916;8.074;2023-09-19T02:26:41;4.80;;;1.70;;
5559;SDS011;2803;47.916;8.074;2023-09-19T02:29:08;1.87;;;1.33;;
5559;SDS011;2803;47.916;8.074;2023-09-19T02:31:35;2.13;;;1.40;;
5559;SDS011;2803;47.916;8.074;2023-09-19T02:34:02;2.30;;;1.40;;
5559;SDS011;2803;47.916;8.074;2023-09-19T02:36:31;3.03;;;1.23;;
5559;SDS011;2803;47.916;8.074;2023-09-19T02:38:58;2.37;;;1.50;;
5559;SDS011;2803;47.916;8.074;2023-09-19T02:41:24;2.30;;;1.33;;
5559;SDS011;2803;47.916;8.074;2023-09-19T02:43:54;2.80;;;1.00;;
5559;SDS011;2803;47.916;8.074;2023-09-19T02:46:21;8.60;;;1.60;;
5559;SDS011;2803;47.916;8.074;2023-09-19T02:48:48;3.40;;;1.27;;
5559;SDS011;2803;47.916;8.074;2023-09-19T02:51:15;7.43;;;1.87;;
5559;SDS011;2803;47.916;8.074;2023-09-19T02:53:42;6.03;;;1.40;;
5559;SDS011;2803;47.916;8.074;2023-09-19T02:56:09;4.70;;;1.40;;
5559;SDS011;2803;47.916;8.074;2023-09-19T02:58:38;2.90;;;1.50;;
5559;SDS011;2803;47.916;8.074;2023-09-19T03:01:07;8.30;;;1.87;;
5559;SDS011;2803;47.916;8.074;2023-09-19T03:03:36;17.40;;;7.27;;
5559;SDS011;2803;47.916;8.074;2023-09-19T03:06:04;17.67;;;9.20;;
5559;SDS011;2803;47.916;8.074;2023-09-19T03:08:31;6.40;;;2.87;;
5559;SDS011;2803;47.916;8.074;2023-09-19T03:11:02;7.90;;;3.00;;
5559;SDS011;2803;47.916;8.074;2023-09-19T03:13:30;21.70;;;9.60;;
5559;SDS011;2803;47.916;8.074;2023-09-19T03:15:57;16.63;;;8.03;;
5559;SDS011;2803;47.916;8.074;2023-09-19T03:18:24;5.03;;;2.30;;
5559;SDS011;2803;47.916;8.074;2023-09-19T03:20:53;3.70;;;1.90;;
5559;SDS011;2803;47.916;8.074;2023-09-19T03:23:20;5.03;;;2.83;;
5559;SDS011;2803;47.916;8.074;2023-09-19T03:25:47;7.43;;;3.63;;
5559;SDS011;2803;47.916;8.074;2023-09-19T03:28:15;8.60;;;2.70;;
5559;SDS011;2803;47.916;8.074;2023-09-19T03:30:42;4.17;;;1.80;;
5559;SDS011;2803;47.916;8.074;2023-09-19T03:33:08;6.67;;;1.83;;
5559;SDS011;2803;47.916;8.074;2023-09-19T03:35:35;4.03;;;1.50;;
5559;SDS011;2803;47.916;8.074;2023-09-19T03:38:02;2.33;;;1.20;;
5559;SDS011;2803;47.916;8.074;2023-09-19T03:40:29;2.43;;;1.30;;
5559;SDS011;2803;47.916;8.074;2023-09-19T03:42:55;5.37;;;2.47;;
5559;SDS011;2803;47.916;8.074;2023-09-19T03:45:23;5.10;;;2.10;;
5559;SDS011;2803;47.916;8.074;2023-09-19T03:47:50;9.03;;;2.17;;
5559;SDS011;2803;47.916;8.074;2023-09-19T03:50:17;2.93;;;1.90;;
5559;SDS011;2803;47.916;8.074;2023-09-19T03:52:44;6.13;;;2.13;;
5559;SDS011;2803;47.916;8.074;2023-09-19T03:55:11;5.10;;;1.70;;
5559;SDS011;2803;47.916;8.074;2023-09-19T03:57:37;5.73;;;2.10;;
5559;SDS011;2803;47.916;8.074;2023-09-19T04:00:04;3.97;;;1.50;;
5559;SDS011;2803;47.916;8.074;2023-09-19T04:02:37;3.20;;;2.10;;
5559;SDS011;2803;47.916;8.074;2023-09-19T04:05:04;3.70;;;1.80;;
5559;SDS011;2803;47.916;8.074;2023-09-19T04:07:32;6.40;;;2.23;;
5559;SDS011;2803;47.916;8.074;2023-09-19T04:09:59;5.03;;;2.30;;
5559;SDS011;2803;47.916;8.074;2023-09-19T04:12:26;2.20;;;1.70;;
5559;SDS011;2803;47.916;8.074;2023-09-19T04:14:52;5.00;;;1.80;;
5559;SDS011;2803;47.916;8.074;2023-09-19T04:17:19;4.07;;;1.50;;
5559;SDS011;2803;47.916;8.074;2023-09-19T04:19:47;6.35;;;1.80;;
5559;SDS011;2803;47.916;8.074;2023-09-19T04:22:13;12.13;;;1.50;;
5559;SDS011;2803;47.916;8.074;2023-09-19T04:24:40;3.70;;;1.47;;
5559;SDS011;2803;47.916;8.074;2023-09-19T04:27:07;2.80;;;1.60;;
5559;SDS011;2803;47.916;8.074;2023-09-19T04:29:34;4.10;;;1.60;;
5559;SDS011;2803;47.916;8.074;2023-09-19T04:32:03;2.80;;;1.50;;
5559;SDS011;2803;47.916;8.074;2023-09-19T04:34:30;4.07;;;1.70;;
5559;SDS011;2803;47.916;8.074;2023-09-19T04:36:58;3.97;;;1.37;;
5559;SDS011;2803;47.916;8.074;2023-09-19T04:39:25;5.23;;;1.80;;
5559;SDS011;2803;47.916;8.074;2023-09-19T04:41:52;4.03;;;1.50;;
5559;SDS011;2803;47.916;8.074;2023-09-19T04:44:19;2.50;;;1.47;;
5559;SDS011;2803;47.916;8.074;2023-09-19T04:46:46;11.10;;;2.23;;
5559;SDS011;2803;47.916;8.074;2023-09-19T04:49:13;2.60;;;1.20;;
5559;SDS011;2803;47.916;8.074;2023-09-19T04:51:40;5.87;;;1.90;;
5559;SDS011;2803;47.916;8.074;2023-09-19T04:54:08;6.63;;;2.37;;
5559;SDS011;2803;47.916;8.074;2023-09-19T04:56:35;4.23;;;1.37;;
5559;SDS011;2803;47.916;8.074;2023-09-19T04:59:05;4.67;;;1.50;;
5559;SDS011;2803;47.916;8.074;2023-09-19T05:01:32;7.40;;;1.60;;
5559;SDS011;2803;47.916;8.074;2023-09-19T05:03:58;5.73;;;1.60;;
5559;SDS011;2803;47.916;8.074;2023-09-19T05:06:25;10.83;;;1.87;;
5559;SDS011;2803;47.916;8.074;2023-09-19T05:08:52;3.93;;;1.63;;
5559;SDS011;2803;47.916;8.074;2023-09-19T05:11:20;4.70;;;1.67;;
5559;SDS011;2803;47.916;8.074;2023-09-19T05:13:47;2.30;;;1.57;;
5559;SDS011;2803;47.916;8.074;2023-09-19T05:16:15;6.40;;;1.57;;
5559;SDS011;2803;47.916;8.074;2023-09-19T05:18:41;3.40;;;1.40;;
5559;SDS011;2803;47.916;8.074;2023-09-19T05:21:08;4.23;;;1.80;;
5559;SDS011;2803;47.916;8.074;2023-09-19T05:23:35;6.00;;;1.50;;
5559;SDS011;2803;47.916;8.074;2023-09-19T05:26:02;7.90;;;1.53;;
5559;SDS011;2803;47.916;8.074;2023-09-19T05:28:30;6.90;;;2.43;;
5559;SDS011;2803;47.916;8.074;2023-09-19T05:30:57;2.13;;;1.40;;
5559;SDS011;2803;47.916;8.074;2023-09-19T05:33:27;7.00;;;1.63;;
5559;SDS011;2803;47.916;8.074;2023-09-19T05:35:56;3.63;;;1.90;;
5559;SDS011;2803;47.916;8.074;2023-09-19T05:38:22;7.20;;;2.10;;
5559;SDS011;2803;47.916;8.074;2023-09-19T05:40:51;19.90;;;2.47;;
5559;SDS011;2803;47.916;8.074;2023-09-19T05:43:17;3.30;;;1.90;;
5559;SDS011;2803;47.916;8.074;2023-09-19T05:45:45;4.33;;;2.10;;
5559;SDS011;2803;47.916;8.074;2023-09-19T05:48:12;4.30;;;1.50;;
5559;SDS011;2803;47.916;8.074;2023-09-19T05:50:41;7.33;;;1.50;;
5559;SDS011;2803;47.916;8.074;2023-09-19T05:53:07;3.90;;;1.60;;
5559;SDS011;2803;47.916;8.074;2023-09-19T05:55:39;3.97;;;1.80;;
5559;SDS011;2803;47.916;8.074;2023-09-19T05:58:06;3.63;;;1.50;;
5559;SDS011;2803;47.916;8.074;2023-09-19T06:00:33;5.17;;;1.60;;
5559;SDS011;2803;47.916;8.074;2023-09-19T06:03:02;3.47;;;1.90;;
5559;SDS011;2803;47.916;8.074;2023-09-19T06:05:29;3.73;;;1.57;;
5559;SDS011;2803;47.916;8.074;2023-09-19T06:07:56;2.60;;;1.50;;
5559;SDS011;2803;47.916;8.074;2023-09-19T06:10:25;4.43;;;1.63;;
5559;SDS011;2803;47.916;8.074;2023-09-19T06:12:53;3.90;;;1.50;;
5559;SDS011;2803;47.916;8.074;2023-09-19T06:15:20;8.00;;;1.53;;
5559;SDS011;2803;47.916;8.074;2023-09-19T06:17:48;3.40;;;1.30;;
5559;SDS011;2803;47.916;8.074;2023-09-19T06:20:16;2.30;;;1.27;;
5559;SDS011;2803;47.916;8.074;2023-09-19T06:22:45;1.57;;;1.00;;
5559;SDS011;2803;47.916;8.074;2023-09-19T06:25:12;5.53;;;1.30;;
5559;SDS011;2803;47.916;8.074;2023-09-19T06:27:42;1.73;;;1.30;;
5559;SDS011;2803;47.916;8.074;2023-09-19T06:30:09;1.60;;;1.00;;
5559;SDS011;2803;47.916;8.074;2023-09-19T06:32:38;6.23;;;1.43;;
5559;SDS011;2803;47.916;8.074;2023-09-19T06:35:04;7.03;;;1.60;;
5559;SDS011;2803;47.916;8.074;2023-09-19T06:37:35;3.30;;;1.27;;
5559;SDS011;2803;47.916;8.074;2023-09-19T06:40:03;4.13;;;1.20;;
5559;SDS011;2803;47.916;8.074;2023-09-19T06:42:31;4.03;;;1.50;;
5559;SDS011;2803;47.916;8.074;2023-09-19T06:44:58;3.03;;;1.83;;
5559;SDS011;2803;47.916;8.074;2023-09-19T06:47:24;1.77;;;1.20;;
5559;SDS011;2803;47.916;8.074;2023-09-19T06:49:51;3.50;;;1.90;;
5559;SDS011;2803;47.916;8.074;2023-09-19T06:52:18;2.63;;;1.27;;
5559;SDS011;2803;47.916;8.074;2023-09-19T06:54:48;3.13;;;1.30;;
5559;SDS011;2803;47.916;8.074;2023-09-19T06:57:17;2.70;;;1.50;;
5559;SDS011;2803;47.916;8.074;2023-09-19T06:59:44;3.60;;;1.33;;
5559;SDS011;2803;47.916;8.074;2023-09-19T07:02:11;2.03;;;1.30;;
5559;SDS011;2803;47.916;8.074;2023-09-19T07:04:38;11.03;;;1.57;;
5559;SDS011;2803;47.916;8.074;2023-09-19T07:07:05;4.10;;;1.60;;
5559;SDS011;2803;47.916;8.074;2023-09-19T07:09:33;5.63;;;1.37;;
5559;SDS011;2803;47.916;8.074;2023-09-19T07:12:01;5.77;;;1.80;;
5559;SDS011;2803;47.916;8.074;2023-09-19T07:14:28;3.77;;;1.77;;
5559;SDS011;2803;47.916;8.074;2023-09-19T07:16:55;5.90;;;1.57;;
5559;SDS011;2803;47.916;8.074;2023-09-19T07:19:22;5.97;;;1.43;;
5559;SDS011;2803;47.916;8.074;2023-09-19T07:21:48;1.57;;;1.30;;
5559;SDS011;2803;47.916;8.074;2023-09-19T07:24:15;5.00;;;1.00;;
5559;SDS011;2803;47.916;8.074;2023-09-19T07:26:42;4.17;;;1.63;;
5559;SDS011;2803;47.916;8.074;2023-09-19T07:29:10;4.37;;;1.30;;
5559;SDS011;2803;47.916;8.074;2023-09-19T07:31:36;3.60;;;1.37;;
5559;SDS011;2803;47.916;8.074;2023-09-19T07:34:03;2.57;;;1.40;;
5559;SDS011;2803;47.916;8.074;2023-09-19T07:36:30;2.27;;;1.57;;
5559;SDS011;2803;47.916;8.074;2023-09-19T07:38:57;3.37;;;1.53;;
5559;SDS011;2803;47.916;8.074;2023-09-19T07:41:25;2.40;;;1.07;;
5559;SDS011;2803;47.916;8.074;2023-09-19T07:43:52;3.27;;;1.30;;
5559;SDS011;2803;47.916;8.074;2023-09-19T07:46:20;2.93;;;1.23;;
5559;SDS011;2803;47.916;8.074;2023-09-19T07:48:49;5.00;;;1.10;;
5559;SDS011;2803;47.916;8.074;2023-09-19T07:51:16;4.50;;;1.60;;
5559;SDS011;2803;47.916;8.074;2023-09-19T07:53:43;4.13;;;1.43;;
5559;SDS011;2803;47.916;8.074;2023-09-19T07:56:09;3.20;;;1.57;;
5559;SDS011;2803;47.916;8.074;2023-09-19T07:58:39;4.83;;;1.20;;
5559;SDS011;2803;47.916;8.074;2023-09-19T08:01:09;1.60;;;1.10;;
5559;SDS011;2803;47.916;8.074;2023-09-19T08:03:40;2.10;;;1.50;;
5559;SDS011;2803;47.916;8.074;2023-09-19T08:06:08;5.77;;;1.40;;
5559;SDS011;2803;47.916;8.074;2023-09-19T08:08:35;2.40;;;1.10;;
5559;SDS011;2803;47.916;8.074;2023-09-19T08:11:03;2.27;;;1.17;;
5559;SDS011;2803;47.916;8.074;2023-09-19T08:13:36;2.10;;;1.07;;
5559;SDS011;2803;47.916;8.074;2023-09-19T08:16:06;12.30;;;1.50;;
5559;SDS011;2803;47.916;8.074;2023-09-19T08:18:32;5.77;;;1.63;;
5559;SDS011;2803;47.916;8.074;2023-09-19T08:21:00;4.60;;;1.50;;
5559;SDS011;2803;47.916;8.074;2023-09-19T08:23:27;5.20;;;1.50;;
5559;SDS011;2803;47.916;8.074;2023-09-19T08:25:55;2.80;;;1.40;;
5559;SDS011;2803;47.916;8.074;2023-09-19T08:28:23;4.30;;;1.40;;
5559;SDS011;2803;47.916;8.074;2023-09-19T08:30:49;3.70;;;1.60;;
5559;SDS011;2803;47.916;8.074;2023-09-19T08:33:16;3.00;;;1.60;;
5559;SDS011;2803;47.916;8.074;2023-09-19T08:35:43;1.93;;;1.40;;
5559;SDS011;2803;47.916;8.074;2023-09-19T08:38:12;3.23;;;1.83;;
5559;SDS011;2803;47.916;8.074;2023-09-19T08:40:39;4.33;;;1.53;;
5559;SDS011;2803;47.916;8.074;2023-09-19T08:43:07;3.20;;;1.37;;
5559;SDS011;2803;47.916;8.074;2023-09-19T08:45:34;3.70;;;1.30;;
5559;SDS011;2803;47.916;8.074;2023-09-19T08:48:05;3.40;;;1.50;;
5559;SDS011;2803;47.916;8.074;2023-09-19T08:50:43;4.00;;;1.57;;
5559;SDS011;2803;47.916;8.074;2023-09-19T08:53:15;4.90;;;1.40;;
5559;SDS011;2803;47.916;8.074;2023-09-19T08:55:47;4.70;;;1.47;;
5559;SDS011;2803;47.916;8.074;2023-09-19T08:58:19;5.53;;;1.40;;
5559;SDS011;2803;47.916;8.074;2023-09-19T09:00:48;3.20;;;1.40;;
5559;SDS011;2803;47.916;8.074;2023-09-19T09:03:16;1.70;;;1.30;;
5559;SDS011;2803;47.916;8.074;2023-09-19T09:05:45;2.00;;;1.40;;
5559;SDS011;2803;47.916;8.074;2023-09-19T09:08:16;6.17;;;1.37;;
5559;SDS011;2803;47.916;8.074;2023-09-19T09:10:47;3.40;;;1.20;;
5559;SDS011;2803;47.916;8.074;2023-09-19T09:13:14;2.00;;;1.20;;
5559;SDS011;2803;47.916;8.074;2023-09-19T09:15:40;5.13;;;1.73;;
5559;SDS011;2803;47.916;8.074;2023-09-19T09:18:10;2.33;;;1.13;;
5559;SDS011;2803;47.916;8.074;2023-09-19T09:20:37;5.67;;;1.77;;
5559;SDS011;2803;47.916;8.074;2023-09-19T09:23:03;2.40;;;1.37;;
5559;SDS011;2803;47.916;8.074;2023-09-19T09:28:18;3.07;;;1.67;;
5559;SDS011;2803;47.916;8.074;2023-09-19T09:30:46;2.80;;;1.30;;
5559;SDS011;2803;47.916;8.074;2023-09-19T09:33:14;2.73;;;1.30;;
5559;SDS011;2803;47.916;8.074;2023-09-19T09:35:49;2.70;;;1.10;;
5559;SDS011;2803;47.916;8.074;2023-09-19T09:38:22;5.17;;;1.43;;
5559;SDS011;2803;47.916;8.074;2023-09-19T09:40:54;4.10;;;1.40;;
5559;SDS011;2803;47.916;8.074;2023-09-19T09:43:27;3.70;;;1.20;;
5559;SDS011;2803;47.916;8.074;2023-09-19T09:46:07;3.50;;;1.67;;
5559;SDS011;2803;47.916;8.074;2023-09-19T09:49:04;3.83;;;1.33;;
5559;SDS011;2803;47.916;8.074;2023-09-19T09:51:41;3.17;;;1.30;;
5559;SDS011;2803;47.916;8.074;2023-09-19T09:54:11;1.40;;;1.00;;
5559;SDS011;2803;47.916;8.074;2023-09-19T09:56:52;3.17;;;1.50;;
5559;SDS011;2803;47.916;8.074;2023-09-19T09:59:23;4.00;;;1.70;;
5559;SDS011;2803;47.916;8.074;2023-09-19T10:02:12;3.87;;;1.10;;
5559;SDS011;2803;47.916;8.074;2023-09-19T10:04:41;6.00;;;1.20;;
5559;SDS011;2803;47.916;8.074;2023-09-19T10:07:23;4.63;;;1.17;;
5559;SDS011;2803;47.916;8.074;2023-09-19T10:09:52;3.33;;;1.40;;
5559;SDS011;2803;47.916;8.074;2023-09-19T10:12:25;3.30;;;1.37;;
5559;SDS011;2803;47.916;8.074;2023-09-19T10:14:54;2.00;;;1.17;;
5559;SDS011;2803;47.916;8.074;2023-09-19T10:17:23;1.40;;;1.00;;
5559;SDS011;2803;47.916;8.074;2023-09-19T10:19:53;4.50;;;1.27;;
5559;SDS011;2803;47.916;8.074;2023-09-19T10:22:22;3.40;;;1.30;;
5559;SDS011;2803;47.916;8.074;2023-09-19T10:24:52;7.40;;;1.70;;
5559;SDS011;2803;47.916;8.074;2023-09-19T10:27:20;3.60;;;1.27;;
5559;SDS011;2803;47.916;8.074;2023-09-19T10:29:49;1.50;;;1.30;;
5559;SDS011;2803;47.916;8.074;2023-09-19T10:32:16;4.60;;;1.67;;
5559;SDS011;2803;47.916;8.074;2023-09-19T10:34:44;8.53;;;1.70;;
5559;SDS011;2803;47.916;8.074;2023-09-19T10:37:12;3.67;;;1.40;;
5559;SDS011;2803;47.916;8.074;2023-09-19T10:39:42;8.00;;;1.60;;
5559;SDS011;2803;47.916;8.074;2023-09-19T10:42:13;5.63;;;1.70;;
5559;SDS011;2803;47.916;8.074;2023-09-19T10:44:45;1.40;;;1.20;;
5559;SDS011;2803;47.916;8.074;2023-09-19T10:47:16;3.47;;;1.30;;
5559;SDS011;2803;47.916;8.074;2023-09-19T10:49:44;2.33;;;1.33;;
5559;SDS011;2803;47.916;8.074;2023-09-19T10:52:12;4.50;;;1.70;;
5559;SDS011;2803;47.916;8.074;2023-09-19T10:54:44;1.80;;;1.10;;
5559;SDS011;2803;47.916;8.074;2023-09-19T10:57:14;2.00;;;1.30;;
5559;SDS011;2803;47.916;8.074;2023-09-19T11:00:00;3.87;;;1.40;;
5559;SDS011;2803;47.916;8.074;2023-09-19T11:05:42;2.77;;;1.20;;
5559;SDS011;2803;47.916;8.074;2023-09-19T11:08:10;3.40;;;1.30;;
5559;SDS011;2803;47.916;8.074;2023-09-19T11:10:44;3.20;;;1.30;;
5559;SDS011;2803;47.916;8.074;2023-09-19T11:16:04;6.00;;;1.97;;
5559;SDS011;2803;47.916;8.074;2023-09-19T11:29:45;5.43;;;1.40;;
5559;SDS011;2803;47.916;8.074;2023-09-19T11:32:14;1.43;;;1.33;;
5559;SDS011;2803;47.916;8.074;2023-09-19T11:34:43;3.13;;;1.40;;
5559;SDS011;2803;47.916;8.074;2023-09-19T11:40:09;3.23;;;1.53;;
5559;SDS011;2803;47.916;8.074;2023-09-19T11:42:41;2.50;;;1.30;;
5559;SDS011;2803;47.916;8.074;2023-09-19T11:45:19;2.10;;;1.10;;
5559;SDS011;2803;47.916;8.074;2023-09-19T11:48:23;3.03;;;1.57;;
5559;SDS011;2803;47.916;8.074;2023-09-19T11:50:50;1.37;;;1.10;;
5559;SDS011;2803;47.916;8.074;2023-09-19T11:53:18;2.07;;;1.20;;
5559;SDS011;2803;47.916;8.074;2023-09-19T11:55:49;3.47;;;1.50;;
5559;SDS011;2803;47.916;8.074;2023-09-19T11:58:17;5.13;;;1.33;;
5559;SDS011;2803;47.916;8.074;2023-09-19T12:00:45;1.83;;;1.10;;
5559;SDS011;2803;47.916;8.074;2023-09-19T12:03:12;2.23;;;1.20;;
5559;SDS011;2803;47.916;8.074;2023-09-19T12:05:40;3.90;;;1.10;;
5559;SDS011;2803;47.916;8.074;2023-09-19T12:08:07;1.50;;;1.07;;
5559;SDS011;2803;47.916;8.074;2023-09-19T12:10:41;6.60;;;0.90;;
5559;SDS011;2803;47.916;8.074;2023-09-19T12:13:16;3.00;;;1.57;;
5559;SDS011;2803;47.916;8.074;2023-09-19T12:15:43;3.60;;;1.40;;
5559;SDS011;2803;47.916;8.074;2023-09-19T12:18:25;1.97;;;1.10;;
5559;SDS011;2803;47.916;8.074;2023-09-19T12:20:52;3.67;;;1.70;;
5559;SDS011;2803;47.916;8.074;2023-09-19T12:23:20;4.90;;;1.07;;
5559;SDS011;2803;47.916;8.074;2023-09-19T12:25:47;1.97;;;1.00;;
5559;SDS011;2803;47.916;8.074;2023-09-19T12:28:18;3.87;;;1.07;;
5559;SDS011;2803;47.916;8.074;2023-09-19T12:30:46;2.17;;;1.27;;
5559;SDS011;2803;47.916;8.074;2023-09-19T12:33:15;2.67;;;1.40;;
5559;SDS011;2803;47.916;8.074;2023-09-19T12:35:44;1.83;;;1.30;;
5559;SDS011;2803;47.916;8.074;2023-09-19T12:38:10;3.00;;;1.57;;
5559;SDS011;2803;47.916;8.074;2023-09-19T12:40:37;1.70;;;1.00;;
5559;SDS011;2803;47.916;8.074;2023-09-19T12:43:07;2.27;;;1.10;;
5559;SDS011;2803;47.916;8.074;2023-09-19T12:45:42;4.23;;;1.23;;
5559;SDS011;2803;47.916;8.074;2023-09-19T12:48:18;2.73;;;1.23;;
5559;SDS011;2803;47.916;8.074;2023-09-19T12:53:31;1.80;;;1.10;;
5559;SDS011;2803;47.916;8.074;2023-09-19T12:55:59;3.67;;;1.10;;
5559;SDS011;2803;47.916;8.074;2023-09-19T12:58:26;2.40;;;1.30;;
5559;SDS011;2803;47.916;8.074;2023-09-19T13:00:54;4.30;;;1.40;;
5559;SDS011;2803;47.916;8.074;2023-09-19T13:03:24;3.50;;;1.10;;
5559;SDS011;2803;47.916;8.074;2023-09-19T13:05:54;1.30;;;1.03;;
5559;SDS011;2803;47.916;8.074;2023-09-19T13:08:24;4.13;;;1.20;;
5559;SDS011;2803;47.916;8.074;2023-09-19T13:11:02;3.03;;;1.07;;
5559;SDS011;2803;47.916;8.074;2023-09-19T13:13:36;2.53;;;1.20;;
5559;SDS011;2803;47.916;8.074;2023-09-19T13:16:05;1.47;;;0.90;;
5559;SDS011;2803;47.916;8.074;2023-09-19T13:18:41;3.00;;;1.30;;
5559;SDS011;2803;47.916;8.074;2023-09-19T13:21:11;2.03;;;1.10;;
5559;SDS011;2803;47.916;8.074;2023-09-19T13:23:40;1.97;;;1.10;;
5559;SDS011;2803;47.916;8.074;2023-09-19T13:26:08;1.40;;;1.00;;
5559;SDS011;2803;47.916;8.074;2023-09-19T13:28:35;2.57;;;1.27;;
5559;SDS011;2803;47.916;8.074;2023-09-19T13:31:04;1.93;;;1.00;;
5559;SDS011;2803;47.916;8.074;2023-09-19T13:33:32;1.83;;;1.07;;
5559;SDS011;2803;47.916;8.074;2023-09-19T13:36:00;2.30;;;1.10;;
5559;SDS011;2803;47.916;8.074;2023-09-19T13:38:27;4.00;;;1.00;;
5559;SDS011;2803;47.916;8.074;2023-09-19T13:40:54;2.30;;;1.13;;
5559;SDS011;2803;47.916;8.074;2023-09-19T13:43:21;2.73;;;1.23;;
5559;SDS011;2803;47.916;8.074;2023-09-19T13:45:47;3.00;;;0.97;;
5559;SDS011;2803;47.916;8.074;2023-09-19T13:48:16;3.27;;;1.00;;
5559;SDS011;2803;47.916;8.074;2023-09-19T13:50:45;1.90;;;1.30;;
5559;SDS011;2803;47.916;8.074;2023-09-19T13:53:11;2.90;;;1.10;;
5559;SDS011;2803;47.916;8.074;2023-09-19T13:55:38;2.67;;;1.70;;
5559;SDS011;2803;47.916;8.074;2023-09-19T13:58:05;2.00;;;0.90;;
5559;SDS011;2803;47.916;8.074;2023-09-19T14:00:32;2.23;;;1.10;;
5559;SDS011;2803;47.916;8.074;2023-09-19T14:03:00;1.67;;;1.20;;
5559;SDS011;2803;47.916;8.074;2023-09-19T14:05:28;1.97;;;1.03;;
5559;SDS011;2803;47.916;8.074;2023-09-19T14:07:55;3.90;;;1.40;;
5559;SDS011;2803;47.916;8.074;2023-09-19T14:10:24;3.10;;;1.17;;
5559;SDS011;2803;47.916;8.074;2023-09-19T14:12:52;2.03;;;1.00;;
5559;SDS011;2803;47.916;8.074;2023-09-19T14:15:18;3.10;;;1.20;;
5559;SDS011;2803;47.916;8.074;2023-09-19T14:17:47;3.03;;;1.10;;
5559;SDS011;2803;47.916;8.074;2023-09-19T14:20:14;3.27;;;1.40;;
5559;SDS011;2803;47.916;8.074;2023-09-19T14:22:42;1.63;;;1.23;;
5559;SDS011;2803;47.916;8.074;2023-09-19T14:25:08;1.30;;;0.90;;
5559;SDS011;2803;47.916;8.074;2023-09-19T14:27:35;5.50;;;1.50;;
5559;SDS011;2803;47.916;8.074;2023-09-19T14:30:02;2.77;;;1.37;;
5559;SDS011;2803;47.916;8.074;2023-09-19T14:32:29;1.77;;;1.20;;
5559;SDS011;2803;47.916;8.074;2023-09-19T14:34:55;3.10;;;1.30;;
5559;SDS011;2803;47.916;8.074;2023-09-19T14:37:22;3.93;;;1.20;;
5559;SDS011;2803;47.916;8.074;2023-09-19T14:39:50;2.23;;;1.40;;
5559;SDS011;2803;47.916;8.074;2023-09-19T14:42:17;3.97;;;1.20;;
5559;SDS011;2803;47.916;8.074;2023-09-19T14:44:43;3.10;;;1.30;;
5559;SDS011;2803;47.916;8.074;2023-09-19T14:47:12;1.57;;;1.10;;
5559;SDS011;2803;47.916;8.074;2023-09-19T14:49:39;1.83;;;1.10;;
5559;SDS011;2803;47.916;8.074;2023-09-19T14:52:07;1.93;;;1.30;;
5559;SDS011;2803;47.916;8.074;2023-09-19T14:54:34;3.30;;;1.80;;
5559;SDS011;2803;47.916;8.074;2023-09-19T14:57:04;2.80;;;1.10;;
5559;SDS011;2803;47.916;8.074;2023-09-19T14:59:30;1.43;;;1.10;;
5559;SDS011;2803;47.916;8.074;2023-09-19T15:01:57;2.90;;;1.30;;
5559;SDS011;2803;47.916;8.074;2023-09-19T15:04:24;1.83;;;1.47;;
5559;SDS011;2803;47.916;8.074;2023-09-19T15:06:51;1.67;;;1.00;;
5559;SDS011;2803;47.916;8.074;2023-09-19T15:09:20;1.50;;;1.13;;
5559;SDS011;2803;47.916;8.074;2023-09-19T15:11:47;9.27;;;1.40;;
5559;SDS011;2803;47.916;8.074;2023-09-19T15:14:14;1.90;;;1.30;;
5559;SDS011;2803;47.916;8.074;2023-09-19T15:16:41;3.63;;;1.30;;
5559;SDS011;2803;47.916;8.074;2023-09-19T15:19:08;5.73;;;1.30;;
5559;SDS011;2803;47.916;8.074;2023-09-19T15:21:36;1.20;;;0.90;;
5559;SDS011;2803;47.916;8.074;2023-09-19T15:24:03;2.50;;;1.00;;
5559;SDS011;2803;47.916;8.074;2023-09-19T15:26:33;3.10;;;1.23;;
5559;SDS011;2803;47.916;8.074;2023-09-19T15:29:00;5.20;;;1.37;;
5559;SDS011;2803;47.916;8.074;2023-09-19T15:31:28;6.00;;;1.77;;
5559;SDS011;2803;47.916;8.074;2023-09-19T15:33:55;1.90;;;1.20;;
5559;SDS011;2803;47.916;8.074;2023-09-19T15:36:22;2.03;;;0.90;;
5559;SDS011;2803;47.916;8.074;2023-09-19T15:38:57;2.40;;;1.40;;
5559;SDS011;2803;47.916;8.074;2023-09-19T15:41:25;3.57;;;1.20;;
5559;SDS011;2803;47.916;8.074;2023-09-19T15:43:53;2.70;;;1.20;;
5559;SDS011;2803;47.916;8.074;2023-09-19T15:46:19;1.73;;;1.07;;
5559;SDS011;2803;47.916;8.074;2023-09-19T15:48:47;3.40;;;1.10;;
5559;SDS011;2803;47.916;8.074;2023-09-19T15:51:15;2.47;;;0.97;;
5559;SDS011;2803;47.916;8.074;2023-09-19T15:53:43;3.97;;;1.40;;
5559;SDS011;2803;47.916;8.074;2023-09-19T15:56:12;3.20;;;1.30;;